sensor_id;sensor_type;location;lat;lon;timestamp;pressure;altitude;pressure_sealevel;temperature;humidity
24280;BME280;12395;42.808;23.408;2023-04-30T00:00:45;94580.81;;;7.55;98.02
24280;BME280;12395;42.808;23.408;2023-04-30T00:03:11;94573.06;;;7.47;98.14
24280;BME280;12395;42.808;23.408;2023-04-30T00:05:36;94565.13;;;7.41;98.32
24280;BME280;12395;42.808;23.408;2023-04-30T00:08:03;94583.63;;;7.47;98.33
24280;BME280;12395;42.808;23.408;2023-04-30T00:10:29;94563.88;;;7.30;98.94
24280;BME280;12395;42.808;23.408;2023-04-30T00:12:54;94564.25;;;7.27;98.67
24280;BME280;12395;42.808;23.408;2023-04-30T00:15:21;94577.44;;;7.34;99.79
24280;BME280;12395;42.808;23.408;2023-04-30T00:17:46;94577.41;;;7.27;100.00
24280;BME280;12395;42.808;23.408;2023-04-30T00:20:12;94577.81;;;7.24;100.00
24280;BME280;12395;42.808;23.408;2023-04-30T00:22:37;94567.84;;;7.13;100.00
24280;BME280;12395;42.808;23.408;2023-04-30T00:25:03;94589.16;;;7.18;100.00
24280;BME280;12395;42.808;23.408;2023-04-30T00:27:28;94559.41;;;6.90;100.00
24280;BME280;12395;42.808;23.408;2023-04-30T00:29:55;94578.91;;;7.02;100.00
24280;BME280;12395;42.808;23.408;2023-04-30T00:32:21;94589.59;;;6.94;100.00
24280;BME280;12395;42.808;23.408;2023-04-30T00:34:46;94589.03;;;6.98;100.00
24280;BME280;12395;42.808;23.408;2023-04-30T00:37:12;94586.72;;;6.89;100.00
24280;BME280;12395;42.808;23.408;2023-04-30T00:39:37;94585.88;;;6.82;100.00
24280;BME280;12395;42.808;23.408;2023-04-30T00:42:03;94586.41;;;6.71;100.00
24280;BME280;12395;42.808;23.408;2023-04-30T00:44:29;94576.25;;;6.68;100.00
24280;BME280;12395;42.808;23.408;2023-04-30T00:46:54;94570.59;;;6.71;100.00
24280;BME280;12395;42.808;23.408;2023-04-30T00:49:20;94585.63;;;6.77;100.00
24280;BME280;12395;42.808;23.408;2023-04-30T00:51:45;94591.50;;;6.79;100.00
24280;BME280;12395;42.808;23.408;2023-04-30T00:54:11;94560.22;;;6.63;100.00
24280;BME280;12395;42.808;23.408;2023-04-30T00:56:37;94573.28;;;6.77;100.00
24280;BME280;12395;42.808;23.408;2023-04-30T00:59:02;94582.84;;;6.85;100.00
24280;BME280;12395;42.808;23.408;2023-04-30T01:01:28;94588.88;;;6.79;100.00
24280;BME280;12395;42.808;23.408;2023-04-30T01:03:53;94577.69;;;6.70;100.00
24280;BME280;12395;42.808;23.408;2023-04-30T01:06:19;94581.75;;;6.73;100.00
24280;BME280;12395;42.808;23.408;2023-04-30T01:08:44;94584.00;;;6.76;100.00
24280;BME280;12395;42.808;23.408;2023-04-30T01:16:27;94584.38;;;6.73;100.00
24280;BME280;12395;42.808;23.408;2023-04-30T01:19:28;94581.31;;;6.69;100.00
24280;BME280;12395;42.808;23.408;2023-04-30T01:22:02;94583.31;;;6.67;100.00
24280;BME280;12395;42.808;23.408;2023-04-30T01:29:51;94580.63;;;6.61;100.00
24280;BME280;12395;42.808;23.408;2023-04-30T01:32:17;94567.47;;;6.54;100.00
24280;BME280;12395;42.808;23.408;2023-04-30T01:34:42;94579.13;;;6.45;100.00
24280;BME280;12395;42.808;23.408;2023-04-30T01:37:16;94578.84;;;6.40;100.00
24280;BME280;12395;42.808;23.408;2023-04-30T01:42:27;94581.19;;;6.29;100.00
24280;BME280;12395;42.808;23.408;2023-04-30T01:45:11;94566.53;;;6.19;100.00
24280;BME280;12395;42.808;23.408;2023-04-30T01:47:44;94584.47;;;6.31;100.00
24280;BME280;12395;42.808;23.408;2023-04-30T01:52:54;94584.00;;;6.27;100.00
24280;BME280;12395;42.808;23.408;2023-04-30T01:55:27;94575.94;;;6.29;100.00
24280;BME280;12395;42.808;23.408;2023-04-30T01:57:59;94578.31;;;6.23;100.00
24280;BME280;12395;42.808;23.408;2023-04-30T02:00:26;94561.16;;;6.06;100.00
24280;BME280;12395;42.808;23.408;2023-04-30T02:02:52;94579.56;;;6.06;100.00
24280;BME280;12395;42.808;23.408;2023-04-30T02:05:18;94560.06;;;6.01;100.00
24280;BME280;12395;42.808;23.408;2023-04-30T02:07:44;94573.13;;;6.09;100.00
24280;BME280;12395;42.808;23.408;2023-04-30T02:10:16;94563.41;;;6.09;100.00
24280;BME280;12395;42.808;23.408;2023-04-30T02:12:41;94563.66;;;6.14;100.00
24280;BME280;12395;42.808;23.408;2023-04-30T02:15:07;94575.50;;;6.25;100.00
24280;BME280;12395;42.808;23.408;2023-04-30T02:17:33;94553.97;;;6.15;100.00
24280;BME280;12395;42.808;23.408;2023-04-30T02:19:59;94574.19;;;6.14;100.00
24280;BME280;12395;42.808;23.408;2023-04-30T02:22:25;94565.25;;;6.09;100.00
24280;BME280;12395;42.808;23.408;2023-04-30T02:24:50;94582.31;;;6.19;100.00
24280;BME280;12395;42.808;23.408;2023-04-30T02:27:18;94587.59;;;6.19;100.00
24280;BME280;12395;42.808;23.408;2023-04-30T02:29:44;94572.56;;;6.13;100.00
24280;BME280;12395;42.808;23.408;2023-04-30T02:32:09;94571.75;;;6.13;100.00
24280;BME280;12395;42.808;23.408;2023-04-30T02:34:34;94582.63;;;6.10;100.00
24280;BME280;12395;42.808;23.408;2023-04-30T02:37:00;94576.53;;;6.09;100.00
24280;BME280;12395;42.808;23.408;2023-04-30T02:39:26;94576.94;;;6.06;100.00
24280;BME280;12395;42.808;23.408;2023-04-30T02:41:52;94575.84;;;6.01;100.00
24280;BME280;12395;42.808;23.408;2023-04-30T02:44:17;94568.91;;;5.93;100.00
24280;BME280;12395;42.808;23.408;2023-04-30T02:46:43;94572.16;;;5.95;100.00
24280;BME280;12395;42.808;23.408;2023-04-30T02:49:08;94577.78;;;5.92;100.00
24280;BME280;12395;42.808;23.408;2023-04-30T02:51:34;94592.66;;;6.00;100.00
24280;BME280;12395;42.808;23.408;2023-04-30T02:53:59;94600.09;;;5.96;100.00
24280;BME280;12395;42.808;23.408;2023-04-30T02:56:24;94586.13;;;5.96;100.00
24280;BME280;12395;42.808;23.408;2023-04-30T02:58:50;94596.72;;;6.02;100.00
24280;BME280;12395;42.808;23.408;2023-04-30T03:01:16;94602.53;;;5.98;100.00
24280;BME280;12395;42.808;23.408;2023-04-30T03:03:41;94595.91;;;6.02;100.00
24280;BME280;12395;42.808;23.408;2023-04-30T03:06:07;94599.50;;;6.15;100.00
24280;BME280;12395;42.808;23.408;2023-04-30T03:08:32;94596.47;;;6.18;100.00
24280;BME280;12395;42.808;23.408;2023-04-30T03:10:57;94603.78;;;6.23;100.00
24280;BME280;12395;42.808;23.408;2023-04-30T03:13:23;94593.34;;;6.30;100.00
24280;BME280;12395;42.808;23.408;2023-04-30T03:16:01;94593.91;;;6.25;100.00
24280;BME280;12395;42.808;23.408;2023-04-30T03:18:29;94602.69;;;6.32;100.00
24280;BME280;12395;42.808;23.408;2023-04-30T03:20:55;94603.09;;;6.36;100.00
24280;BME280;12395;42.808;23.408;2023-04-30T03:23:20;94585.72;;;6.35;100.00
24280;BME280;12395;42.808;23.408;2023-04-30T03:25:46;94586.66;;;6.55;100.00
24280;BME280;12395;42.808;23.408;2023-04-30T03:28:11;94585.88;;;6.54;100.00
24280;BME280;12395;42.808;23.408;2023-04-30T03:30:37;94598.06;;;6.62;100.00
24280;BME280;12395;42.808;23.408;2023-04-30T03:33:02;94599.78;;;6.76;100.00
24280;BME280;12395;42.808;23.408;2023-04-30T03:35:31;94599.88;;;6.89;100.00
24280;BME280;12395;42.808;23.408;2023-04-30T03:37:56;94610.50;;;7.02;100.00
24280;BME280;12395;42.808;23.408;2023-04-30T03:40:21;94619.53;;;7.14;100.00
24280;BME280;12395;42.808;23.408;2023-04-30T03:42:47;94611.63;;;7.14;100.00
24280;BME280;12395;42.808;23.408;2023-04-30T03:45:13;94611.88;;;7.26;100.00
24280;BME280;12395;42.808;23.408;2023-04-30T03:47:38;94610.13;;;7.39;100.00
24280;BME280;12395;42.808;23.408;2023-04-30T03:50:04;94625.00;;;7.53;100.00
24280;BME280;12395;42.808;23.408;2023-04-30T03:52:29;94623.22;;;7.60;100.00
24280;BME280;12395;42.808;23.408;2023-04-30T03:54:55;94623.88;;;7.69;100.00
24280;BME280;12395;42.808;23.408;2023-04-30T03:57:21;94625.72;;;7.75;100.00
24280;BME280;12395;42.808;23.408;2023-04-30T03:59:47;94635.28;;;7.83;100.00
24280;BME280;12395;42.808;23.408;2023-04-30T04:02:13;94635.28;;;7.89;100.00
24280;BME280;12395;42.808;23.408;2023-04-30T04:04:38;94636.53;;;7.87;100.00
24280;BME280;12395;42.808;23.408;2023-04-30T04:07:04;94620.09;;;7.85;100.00
24280;BME280;12395;42.808;23.408;2023-04-30T04:09:32;94631.09;;;8.08;100.00
24280;BME280;12395;42.808;23.408;2023-04-30T04:11:57;94624.19;;;8.07;100.00
24280;BME280;12395;42.808;23.408;2023-04-30T04:14:22;94633.03;;;8.27;100.00
24280;BME280;12395;42.808;23.408;2023-04-30T04:16:55;94633.38;;;8.24;100.00
24280;BME280;12395;42.808;23.408;2023-04-30T04:25:58;94641.19;;;8.71;100.00
24280;BME280;12395;42.808;23.408;2023-04-30T04:28:24;94640.41;;;8.97;100.00
24280;BME280;12395;42.808;23.408;2023-04-30T04:30:50;94644.03;;;9.09;100.00
24280;BME280;12395;42.808;23.408;2023-04-30T04:33:17;94639.78;;;9.14;100.00
24280;BME280;12395;42.808;23.408;2023-04-30T04:35:42;94642.00;;;9.17;100.00
24280;BME280;12395;42.808;23.408;2023-04-30T04:38:08;94655.00;;;9.39;100.00
24280;BME280;12395;42.808;23.408;2023-04-30T04:40:33;94654.56;;;9.48;100.00
24280;BME280;12395;42.808;23.408;2023-04-30T04:42:59;94658.41;;;9.59;100.00
24280;BME280;12395;42.808;23.408;2023-04-30T04:45:25;94656.34;;;9.67;100.00
24280;BME280;12395;42.808;23.408;2023-04-30T04:47:50;94645.97;;;9.72;99.83
24280;BME280;12395;42.808;23.408;2023-04-30T04:50:16;94673.19;;;9.86;98.35
24280;BME280;12395;42.808;23.408;2023-04-30T04:52:42;94633.56;;;9.79;98.03
24280;BME280;12395;42.808;23.408;2023-04-30T04:55:07;94662.75;;;10.04;98.05
24280;BME280;12395;42.808;23.408;2023-04-30T04:57:33;94651.53;;;10.08;97.47
24280;BME280;12395;42.808;23.408;2023-04-30T04:59:59;94673.91;;;10.26;96.68
24280;BME280;12395;42.808;23.408;2023-04-30T05:02:24;94669.34;;;10.39;95.89
24280;BME280;12395;42.808;23.408;2023-04-30T05:04:50;94666.47;;;10.47;95.83
24280;BME280;12395;42.808;23.408;2023-04-30T05:07:18;94672.09;;;10.57;94.36
24280;BME280;12395;42.808;23.408;2023-04-30T05:09:45;94680.97;;;10.69;93.75
24280;BME280;12395;42.808;23.408;2023-04-30T05:12:12;94668.34;;;10.71;92.41
24280;BME280;12395;42.808;23.408;2023-04-30T05:14:39;94673.41;;;10.79;92.26
24280;BME280;12395;42.808;23.408;2023-04-30T05:23:48;94676.34;;;11.21;89.76
24280;BME280;12395;42.808;23.408;2023-04-30T05:26:13;94687.44;;;11.36;89.75
24280;BME280;12395;42.808;23.408;2023-04-30T05:28:39;94685.72;;;11.48;89.08
24280;BME280;12395;42.808;23.408;2023-04-30T05:31:04;94687.03;;;11.57;88.58
24280;BME280;12395;42.808;23.408;2023-04-30T05:36:56;94687.84;;;11.82;88.14
24280;BME280;12395;42.808;23.408;2023-04-30T05:39:21;94691.22;;;11.89;87.74
24280;BME280;12395;42.808;23.408;2023-04-30T05:41:46;94692.34;;;12.00;87.56
24280;BME280;12395;42.808;23.408;2023-04-30T05:44:12;94694.56;;;12.03;87.73
24280;BME280;12395;42.808;23.408;2023-04-30T05:46:37;94687.94;;;12.12;87.43
24280;BME280;12395;42.808;23.408;2023-04-30T05:49:02;94676.84;;;12.15;87.27
24280;BME280;12395;42.808;23.408;2023-04-30T05:51:28;94679.59;;;12.26;86.82
24280;BME280;12395;42.808;23.408;2023-04-30T05:53:53;94680.38;;;12.45;86.51
24280;BME280;12395;42.808;23.408;2023-04-30T05:56:19;94694.31;;;12.59;85.20
24280;BME280;12395;42.808;23.408;2023-04-30T05:58:45;94675.63;;;12.65;85.25
24280;BME280;12395;42.808;23.408;2023-04-30T06:01:11;94685.25;;;12.78;85.67
24280;BME280;12395;42.808;23.408;2023-04-30T06:03:36;94678.00;;;12.85;84.79
24280;BME280;12395;42.808;23.408;2023-04-30T06:06:02;94689.75;;;13.07;84.35
24280;BME280;12395;42.808;23.408;2023-04-30T06:08:28;94676.34;;;13.13;83.46
24280;BME280;12395;42.808;23.408;2023-04-30T06:10:54;94689.13;;;13.35;83.30
24280;BME280;12395;42.808;23.408;2023-04-30T06:13:20;94675.22;;;13.33;83.19
24280;BME280;12395;42.808;23.408;2023-04-30T06:15:45;94701.41;;;13.36;82.49
24280;BME280;12395;42.808;23.408;2023-04-30T06:18:11;94672.88;;;12.83;82.96
24280;BME280;12395;42.808;23.408;2023-04-30T06:20:38;94702.44;;;12.64;83.62
24280;BME280;12395;42.808;23.408;2023-04-30T06:23:03;94698.53;;;12.30;84.79
24280;BME280;12395;42.808;23.408;2023-04-30T06:25:29;94694.34;;;12.22;86.81
24280;BME280;12395;42.808;23.408;2023-04-30T06:27:54;94712.63;;;12.30;87.79
24280;BME280;12395;42.808;23.408;2023-04-30T06:30:20;94694.63;;;12.32;88.76
24280;BME280;12395;42.808;23.408;2023-04-30T06:32:45;94696.97;;;12.40;88.15
24280;BME280;12395;42.808;23.408;2023-04-30T06:35:11;94687.63;;;12.38;87.41
24280;BME280;12395;42.808;23.408;2023-04-30T06:37:36;94690.78;;;12.47;87.29
24280;BME280;12395;42.808;23.408;2023-04-30T06:40:05;94706.63;;;12.53;87.19
24280;BME280;12395;42.808;23.408;2023-04-30T06:42:31;94697.22;;;12.39;87.29
24280;BME280;12395;42.808;23.408;2023-04-30T06:45:02;94696.78;;;12.42;86.82
24280;BME280;12395;42.808;23.408;2023-04-30T06:47:29;94701.09;;;12.55;87.74
24280;BME280;12395;42.808;23.408;2023-04-30T06:49:59;94699.97;;;12.62;86.79
24280;BME280;12395;42.808;23.408;2023-04-30T06:52:24;94703.13;;;12.71;84.40
24280;BME280;12395;42.808;23.408;2023-04-30T06:54:50;94696.72;;;12.78;83.66
24280;BME280;12395;42.808;23.408;2023-04-30T06:57:15;94707.66;;;13.00;82.31
24280;BME280;12395;42.808;23.408;2023-04-30T06:59:41;94697.88;;;12.94;78.67
24280;BME280;12395;42.808;23.408;2023-04-30T07:02:06;94695.47;;;12.92;78.33
24280;BME280;12395;42.808;23.408;2023-04-30T07:04:31;94706.28;;;13.09;79.70
24280;BME280;12395;42.808;23.408;2023-04-30T07:06:57;94688.16;;;13.06;78.35
24280;BME280;12395;42.808;23.408;2023-04-30T07:09:26;94703.34;;;13.17;78.12
24280;BME280;12395;42.808;23.408;2023-04-30T07:11:53;94720.69;;;13.31;75.19
24280;BME280;12395;42.808;23.408;2023-04-30T07:14:18;94704.19;;;13.41;76.25
24280;BME280;12395;42.808;23.408;2023-04-30T07:16:44;94707.44;;;13.54;74.09
24280;BME280;12395;42.808;23.408;2023-04-30T07:19:09;94712.66;;;13.72;73.39
24280;BME280;12395;42.808;23.408;2023-04-30T07:21:35;94703.88;;;13.83;72.89
24280;BME280;12395;42.808;23.408;2023-04-30T07:24:00;94708.94;;;13.97;70.65
24280;BME280;12395;42.808;23.408;2023-04-30T07:26:25;94719.84;;;14.30;70.57
24280;BME280;12395;42.808;23.408;2023-04-30T07:28:51;94720.09;;;14.68;70.97
24280;BME280;12395;42.808;23.408;2023-04-30T07:31:16;94718.19;;;15.08;70.62
24280;BME280;12395;42.808;23.408;2023-04-30T07:33:43;94725.44;;;15.41;66.31
24280;BME280;12395;42.808;23.408;2023-04-30T07:36:09;94723.63;;;15.75;63.88
24280;BME280;12395;42.808;23.408;2023-04-30T07:38:34;94724.91;;;15.56;65.26
24280;BME280;12395;42.808;23.408;2023-04-30T07:41:00;94726.56;;;15.28;66.66
24280;BME280;12395;42.808;23.408;2023-04-30T07:43:27;94711.16;;;15.19;69.43
24280;BME280;12395;42.808;23.408;2023-04-30T07:45:52;94720.84;;;15.36;67.47
24280;BME280;12395;42.808;23.408;2023-04-30T07:48:19;94718.28;;;15.58;66.87
24280;BME280;12395;42.808;23.408;2023-04-30T07:50:48;94722.97;;;15.68;65.93
24280;BME280;12395;42.808;23.408;2023-04-30T07:53:14;94726.97;;;15.82;65.90
24280;BME280;12395;42.808;23.408;2023-04-30T07:55:39;94733.16;;;15.87;64.16
24280;BME280;12395;42.808;23.408;2023-04-30T07:58:05;94716.66;;;15.90;65.06
24280;BME280;12395;42.808;23.408;2023-04-30T08:00:30;94723.78;;;15.85;65.08
24280;BME280;12395;42.808;23.408;2023-04-30T08:02:57;94728.63;;;15.55;65.72
24280;BME280;12395;42.808;23.408;2023-04-30T08:05:22;94725.19;;;15.26;66.97
24280;BME280;12395;42.808;23.408;2023-04-30T08:07:48;94733.91;;;15.21;68.29
24280;BME280;12395;42.808;23.408;2023-04-30T08:10:13;94738.72;;;15.08;69.06
24280;BME280;12395;42.808;23.408;2023-04-30T08:12:38;94737.25;;;15.00;70.72
24280;BME280;12395;42.808;23.408;2023-04-30T08:15:05;94729.72;;;14.97;71.79
24280;BME280;12395;42.808;23.408;2023-04-30T08:17:32;94736.78;;;15.03;72.60
24280;BME280;12395;42.808;23.408;2023-04-30T08:19:57;94734.38;;;15.18;75.54
24280;BME280;12395;42.808;23.408;2023-04-30T08:22:23;94721.69;;;15.25;73.74
24280;BME280;12395;42.808;23.408;2023-04-30T08:24:48;94725.75;;;15.28;72.99
24280;BME280;12395;42.808;23.408;2023-04-30T08:27:15;94721.03;;;15.47;74.12
24280;BME280;12395;42.808;23.408;2023-04-30T08:29:40;94688.97;;;15.47;71.18
24280;BME280;12395;42.808;23.408;2023-04-30T08:32:05;94722.22;;;15.89;71.54
24280;BME280;12395;42.808;23.408;2023-04-30T08:34:31;94685.72;;;15.94;69.73
24280;BME280;12395;42.808;23.408;2023-04-30T08:36:56;94732.84;;;16.39;66.15
24280;BME280;12395;42.808;23.408;2023-04-30T08:39:23;94708.78;;;16.39;65.89
24280;BME280;12395;42.808;23.408;2023-04-30T08:41:54;94733.25;;;16.47;63.14
24280;BME280;12395;42.808;23.408;2023-04-30T08:44:21;94732.09;;;16.60;62.49
24280;BME280;12395;42.808;23.408;2023-04-30T08:46:53;94722.59;;;16.69;61.74
24280;BME280;12395;42.808;23.408;2023-04-30T08:49:23;94732.97;;;16.87;62.34
24280;BME280;12395;42.808;23.408;2023-04-30T08:51:49;94729.03;;;16.94;62.94
24280;BME280;12395;42.808;23.408;2023-04-30T08:54:16;94720.34;;;16.82;65.56
24280;BME280;12395;42.808;23.408;2023-04-30T08:56:44;94720.22;;;16.72;65.25
24280;BME280;12395;42.808;23.408;2023-04-30T08:59:11;94722.75;;;16.62;61.85
24280;BME280;12395;42.808;23.408;2023-04-30T09:01:37;94714.94;;;16.39;62.28
24280;BME280;12395;42.808;23.408;2023-04-30T09:04:03;94706.81;;;16.29;66.65
24280;BME280;12395;42.808;23.408;2023-04-30T09:06:28;94694.38;;;16.40;65.02
24280;BME280;12395;42.808;23.408;2023-04-30T09:08:54;94690.44;;;16.47;64.50
24280;BME280;12395;42.808;23.408;2023-04-30T09:11:21;94686.78;;;16.96;65.98
24280;BME280;12395;42.808;23.408;2023-04-30T09:13:49;94701.16;;;17.44;65.13
24280;BME280;12395;42.808;23.408;2023-04-30T09:16:15;94685.94;;;17.76;61.98
24280;BME280;12395;42.808;23.408;2023-04-30T09:18:40;94686.09;;;18.01;62.64
24280;BME280;12395;42.808;23.408;2023-04-30T09:21:06;94698.50;;;18.12;59.52
24280;BME280;12395;42.808;23.408;2023-04-30T09:23:32;94693.00;;;17.92;58.09
24280;BME280;12395;42.808;23.408;2023-04-30T09:25:58;94685.44;;;17.84;59.81
24280;BME280;12395;42.808;23.408;2023-04-30T09:28:36;94674.84;;;17.36;66.46
24280;BME280;12395;42.808;23.408;2023-04-30T09:31:02;94677.53;;;16.82;70.91
24280;BME280;12395;42.808;23.408;2023-04-30T09:33:27;94683.13;;;16.38;77.50
24280;BME280;12395;42.808;23.408;2023-04-30T09:35:54;94678.31;;;15.80;80.12
24280;BME280;12395;42.808;23.408;2023-04-30T09:38:33;94688.91;;;15.58;78.77
24280;BME280;12395;42.808;23.408;2023-04-30T09:41:00;94674.78;;;15.29;84.47
24280;BME280;12395;42.808;23.408;2023-04-30T09:43:29;94681.81;;;15.19;85.50
24280;BME280;12395;42.808;23.408;2023-04-30T09:45:57;94674.75;;;14.96;79.46
24280;BME280;12395;42.808;23.408;2023-04-30T09:48:24;94677.72;;;14.83;83.08
24280;BME280;12395;42.808;23.408;2023-04-30T09:50:51;94672.81;;;14.63;80.53
24280;BME280;12395;42.808;23.408;2023-04-30T09:53:17;94666.66;;;14.63;80.91
24280;BME280;12395;42.808;23.408;2023-04-30T09:55:48;94662.31;;;14.74;87.26
24280;BME280;12395;42.808;23.408;2023-04-30T09:58:14;94673.19;;;14.84;90.38
24280;BME280;12395;42.808;23.408;2023-04-30T10:00:41;94678.25;;;14.97;92.30
24280;BME280;12395;42.808;23.408;2023-04-30T10:03:09;94665.94;;;14.96;90.45
24280;BME280;12395;42.808;23.408;2023-04-30T10:05:46;94661.41;;;14.96;87.28
24280;BME280;12395;42.808;23.408;2023-04-30T10:08:20;94663.72;;;14.93;88.74
24280;BME280;12395;42.808;23.408;2023-04-30T10:11:01;94634.56;;;14.86;94.00
24280;BME280;12395;42.808;23.408;2023-04-30T10:13:30;94632.72;;;15.03;99.61
24280;BME280;12395;42.808;23.408;2023-04-30T10:16:06;94651.41;;;15.36;96.78
24280;BME280;12395;42.808;23.408;2023-04-30T10:18:38;94655.97;;;15.53;93.98
24280;BME280;12395;42.808;23.408;2023-04-30T10:21:06;94664.94;;;15.80;78.31
24280;BME280;12395;42.808;23.408;2023-04-30T10:23:39;94659.47;;;16.08;73.73
24280;BME280;12395;42.808;23.408;2023-04-30T10:26:10;94663.97;;;16.24;69.50
24280;BME280;12395;42.808;23.408;2023-04-30T10:28:41;94686.28;;;16.35;81.78
24280;BME280;12395;42.808;23.408;2023-04-30T10:31:07;94703.78;;;15.87;77.55
24280;BME280;12395;42.808;23.408;2023-04-30T10:33:48;94700.31;;;15.09;77.46
24280;BME280;12395;42.808;23.408;2023-04-30T10:38:59;94697.19;;;14.55;87.42
24280;BME280;12395;42.808;23.408;2023-04-30T10:41:25;94710.09;;;14.24;89.38
24280;BME280;12395;42.808;23.408;2023-04-30T10:43:56;94699.44;;;14.24;94.47
24280;BME280;12395;42.808;23.408;2023-04-30T10:46:22;94699.91;;;14.32;93.72
24280;BME280;12395;42.808;23.408;2023-04-30T10:48:49;94693.31;;;14.35;94.58
24280;BME280;12395;42.808;23.408;2023-04-30T10:51:14;94693.31;;;14.63;95.00
24280;BME280;12395;42.808;23.408;2023-04-30T10:53:41;94693.91;;;14.93;89.01
24280;BME280;12395;42.808;23.408;2023-04-30T10:56:07;94678.19;;;14.80;91.25
24280;BME280;12395;42.808;23.408;2023-04-30T10:58:38;94670.19;;;14.80;94.80
24280;BME280;12395;42.808;23.408;2023-04-30T11:01:07;94676.28;;;14.92;94.11
24280;BME280;12395;42.808;23.408;2023-04-30T11:03:35;94664.25;;;15.06;93.69
24280;BME280;12395;42.808;23.408;2023-04-30T11:06:10;94670.91;;;15.20;95.91
24280;BME280;12395;42.808;23.408;2023-04-30T11:08:37;94660.81;;;15.22;97.57
24280;BME280;12395;42.808;23.408;2023-04-30T11:11:03;94678.97;;;15.54;99.54
24280;BME280;12395;42.808;23.408;2023-04-30T11:13:42;94667.44;;;15.70;95.82
24280;BME280;12395;42.808;23.408;2023-04-30T11:16:08;94698.34;;;15.99;90.93
24280;BME280;12395;42.808;23.408;2023-04-30T11:18:40;94686.38;;;15.85;88.07
24280;BME280;12395;42.808;23.408;2023-04-30T11:21:07;94697.28;;;16.00;88.07
24280;BME280;12395;42.808;23.408;2023-04-30T11:23:32;94694.09;;;16.19;93.90
24280;BME280;12395;42.808;23.408;2023-04-30T11:25:59;94705.13;;;16.06;89.31
24280;BME280;12395;42.808;23.408;2023-04-30T11:28:26;94704.34;;;15.89;82.53
24280;BME280;12395;42.808;23.408;2023-04-30T11:30:58;94711.50;;;15.84;83.25
24280;BME280;12395;42.808;23.408;2023-04-30T11:33:33;94678.63;;;15.67;86.75
24280;BME280;12395;42.808;23.408;2023-04-30T11:36:00;94697.63;;;15.87;84.56
24280;BME280;12395;42.808;23.408;2023-04-30T11:38:30;94689.91;;;16.07;82.07
24280;BME280;12395;42.808;23.408;2023-04-30T11:40:58;94690.84;;;16.56;82.08
24280;BME280;12395;42.808;23.408;2023-04-30T11:43:26;94668.41;;;17.05;80.80
24280;BME280;12395;42.808;23.408;2023-04-30T11:48:23;94676.78;;;17.72;72.14
24280;BME280;12395;42.808;23.408;2023-04-30T11:50:49;94679.50;;;17.77;69.63
24280;BME280;12395;42.808;23.408;2023-04-30T11:53:15;94670.56;;;17.61;70.20
24280;BME280;12395;42.808;23.408;2023-04-30T11:55:40;94671.63;;;17.34;73.89
24280;BME280;12395;42.808;23.408;2023-04-30T11:58:08;94671.47;;;16.92;76.20
24280;BME280;12395;42.808;23.408;2023-04-30T12:00:35;94681.88;;;16.45;73.83
24280;BME280;12395;42.808;23.408;2023-04-30T12:03:00;94679.88;;;15.97;80.03
24280;BME280;12395;42.808;23.408;2023-04-30T12:05:27;94689.28;;;16.00;84.14
24280;BME280;12395;42.808;23.408;2023-04-30T12:07:59;94703.13;;;15.97;89.50
24280;BME280;12395;42.808;23.408;2023-04-30T12:10:25;94699.59;;;15.75;90.76
24280;BME280;12395;42.808;23.408;2023-04-30T12:12:51;94686.72;;;15.55;85.33
24280;BME280;12395;42.808;23.408;2023-04-30T12:15:20;94668.38;;;15.59;88.42
24280;BME280;12395;42.808;23.408;2023-04-30T12:17:50;94659.69;;;15.68;94.68
24280;BME280;12395;42.808;23.408;2023-04-30T12:20:16;94646.75;;;15.60;92.39
24280;BME280;12395;42.808;23.408;2023-04-30T12:22:43;94660.97;;;15.66;86.41
24280;BME280;12395;42.808;23.408;2023-04-30T12:25:15;94653.75;;;15.83;89.96
24280;BME280;12395;42.808;23.408;2023-04-30T12:27:44;94647.97;;;16.07;92.27
24280;BME280;12395;42.808;23.408;2023-04-30T12:30:11;94645.44;;;16.39;96.16
24280;BME280;12395;42.808;23.408;2023-04-30T12:32:42;94660.19;;;16.63;94.78
24280;BME280;12395;42.808;23.408;2023-04-30T12:35:12;94657.16;;;16.76;95.97
24280;BME280;12395;42.808;23.408;2023-04-30T12:37:44;94663.84;;;16.79;91.84
24280;BME280;12395;42.808;23.408;2023-04-30T12:40:13;94670.63;;;16.86;91.57
24280;BME280;12395;42.808;23.408;2023-04-30T12:42:41;94650.25;;;16.85;89.18
24280;BME280;12395;42.808;23.408;2023-04-30T12:45:08;94657.19;;;17.08;90.04
24280;BME280;12395;42.808;23.408;2023-04-30T12:47:39;94650.00;;;17.14;88.92
24280;BME280;12395;42.808;23.408;2023-04-30T12:50:08;94648.53;;;17.28;89.18
24280;BME280;12395;42.808;23.408;2023-04-30T12:52:34;94643.44;;;17.53;87.51
24280;BME280;12395;42.808;23.408;2023-04-30T12:55:16;94647.59;;;17.76;82.95
24280;BME280;12395;42.808;23.408;2023-04-30T12:58:08;94650.31;;;17.81;82.27
24280;BME280;12395;42.808;23.408;2023-04-30T13:00:50;94644.38;;;17.73;81.14
24280;BME280;12395;42.808;23.408;2023-04-30T13:03:19;94652.94;;;17.70;81.79
24280;BME280;12395;42.808;23.408;2023-04-30T13:05:47;94638.41;;;17.61;82.33
24280;BME280;12395;42.808;23.408;2023-04-30T13:08:13;94643.53;;;17.68;82.10
24280;BME280;12395;42.808;23.408;2023-04-30T13:10:38;94623.47;;;17.76;81.27
24280;BME280;12395;42.808;23.408;2023-04-30T13:13:04;94645.16;;;18.11;82.06
24280;BME280;12395;42.808;23.408;2023-04-30T13:15:29;94621.88;;;18.21;82.01
24280;BME280;12395;42.808;23.408;2023-04-30T13:17:55;94633.22;;;18.38;80.16
24280;BME280;12395;42.808;23.408;2023-04-30T13:20:20;94615.47;;;18.27;79.07
24280;BME280;12395;42.808;23.408;2023-04-30T13:22:46;94639.91;;;18.36;81.48
24280;BME280;12395;42.808;23.408;2023-04-30T13:25:11;94634.19;;;18.22;77.82
24280;BME280;12395;42.808;23.408;2023-04-30T13:27:37;94632.31;;;18.18;75.40